Time;durP1;ratioP1;P1;durP2;ratioP2;P2;SDS_P1;SDS_P2;PMS_P1;PMS_P2;Temp;Humidity;BMP_temperature;BMP_pressure;BME280_temperature;BME280_humidity;BME280_pressure;Samples;Min_cycle;Max_cycle;Signal;HPM_P1;HPM_P2
2023/08/10 00:01:18;;;;;;;;;;;9.10;99.90;;;;;;5052508;28;19939;-85
2023/08/10 00:03:44;;;;;;;;;;;9.10;99.90;;;;;;5044509;28;19913;-85
2023/08/10 00:06:10;;;;;;;;;;;9.10;99.90;;;;;;5054015;28;20351;-85
2023/08/10 00:08:36;;;;;;;;;;;9.10;99.90;;;;;;5052268;28;19912;-85
2023/08/10 00:11:02;;;;;;;;;;;9.10;99.90;;;;;;5035780;28;20003;-85
2023/08/10 00:13:27;;;;;;;;;;;9.10;99.90;;;;;;5052529;28;19990;-85
2023/08/10 00:15:53;;;;;;;;;;;9.10;99.90;;;;;;5035473;28;19908;-85
2023/08/10 00:18:19;;;;;;;;;;;9.10;99.90;;;;;;5086012;28;20310;-85
2023/08/10 00:20:44;;;;;;;;;;;9.10;99.90;;;;;;5052316;28;19990;-85
2023/08/10 00:23:10;;;;;;;;;;;9.10;99.90;;;;;;5052422;28;19913;-85
2023/08/10 00:25:36;;;;;;;;;;;9.10;99.90;;;;;;5085800;28;20323;-85
2023/08/10 00:28:02;;;;;;;;;;;9.00;99.90;;;;;;5035687;28;19911;-84
2023/08/10 00:30:28;;;;;;;;;;;9.00;99.90;;;;;;5035599;28;20338;-85
2023/08/10 00:32:54;;;;;;;;;;;9.00;99.90;;;;;;5035600;28;19979;-85
2023/08/10 00:35:20;;;;;;;;;;;9.00;99.90;;;;;;5035521;28;20364;-85
2023/08/10 00:37:46;;;;;;;;;;;9.00;99.90;;;;;;5035844;28;20594;-85
2023/08/10 00:40:12;;;;;;;;;;;8.90;99.90;;;;;;5052180;28;19991;-85
2023/08/10 00:42:39;;;;;;;;;;;8.90;99.90;;;;;;5035461;28;19955;-85
2023/08/10 00:45:05;;;;;;;;;;;8.90;99.90;;;;;;5035539;28;19999;-85
2023/08/10 00:47:31;;;;;;;;;;;8.90;99.90;;;;;;5051989;28;19963;-85
2023/08/10 00:49:56;;;;;;;;;;;8.90;99.90;;;;;;5035598;28;19909;-85
2023/08/10 00:52:22;;;;;;;;;;;8.90;99.90;;;;;;5035380;28;19913;-85
2023/08/10 00:54:48;;;;;;;;;;;8.80;99.90;;;;;;5051900;28;20348;-85
2023/08/10 00:57:13;;;;;;;;;;;8.90;99.90;;;;;;5051765;28;19924;-85
2023/08/10 00:59:39;;;;;;;;;;;8.90;99.90;;;;;;5051909;28;19909;-84
2023/08/10 01:02:05;;;;;;;;;;;8.90;99.90;;;;;;5037609;28;19931;-85
2023/08/10 01:04:31;;;;;;;;;;;8.90;99.90;;;;;;5055483;28;20688;-85
2023/08/10 01:07:16;;;;;;;;;;;8.90;99.90;;;;;;5038818;28;19909;-84
2023/08/10 01:09:56;;;;;;;;;;;8.90;99.90;;;;;;5038912;28;19956;-84
2023/08/10 01:12:36;;;;;;;;;;;8.90;99.90;;;;;;5072155;28;20034;-84
2023/08/10 01:15:08;;;;;;;;;;;8.90;99.90;;;;;;5055583;28;19957;-85
2023/08/10 01:17:37;;;;;;;;;;;8.90;99.90;;;;;;5055619;28;19909;-85
2023/08/10 01:20:07;;;;;;;;;;;8.80;99.90;;;;;;5055464;28;19908;-84
2023/08/10 01:22:48;;;;;;;;;;;8.80;99.90;;;;;;5055232;28;19952;-85
2023/08/10 01:25:14;;;;;;;;;;;8.70;99.90;;;;;;5071824;28;19932;-85
2023/08/10 01:27:41;;;;;;;;;;;8.70;99.90;;;;;;5054877;28;19927;-85
2023/08/10 01:30:08;;;;;;;;;;;8.70;99.90;;;;;;5038588;28;19908;-84
2023/08/10 01:32:33;;;;;;;;;;;8.70;99.90;;;;;;5054630;28;19919;-85
2023/08/10 01:34:59;;;;;;;;;;;8.70;99.90;;;;;;5038481;28;19998;-85
2023/08/10 01:37:26;;;;;;;;;;;8.70;99.90;;;;;;5055433;28;19915;-85
2023/08/10 01:39:51;;;;;;;;;;;8.70;99.90;;;;;;5055141;28;19927;-85
2023/08/10 01:42:17;;;;;;;;;;;8.70;99.90;;;;;;5038537;28;20266;-85
2023/08/10 01:44:43;;;;;;;;;;;8.60;99.90;;;;;;5055144;28;19996;-85
2023/08/10 01:47:46;;;;;;;;;;;8.60;99.90;;;;;;5038318;28;19908;-85
2023/08/10 01:50:12;;;;;;;;;;;8.60;99.90;;;;;;5043425;28;20368;-84
2023/08/10 01:52:43;;;;;;;;;;;8.60;99.90;;;;;;5038127;28;19913;-85
2023/08/10 01:55:09;;;;;;;;;;;8.60;99.90;;;;;;5038011;28;19912;-85
2023/08/10 01:57:35;;;;;;;;;;;8.60;99.90;;;;;;5054637;28;19979;-85
2023/08/10 02:00:01;;;;;;;;;;;8.60;99.90;;;;;;5038108;28;19908;-85
2023/08/10 02:02:27;;;;;;;;;;;8.60;99.90;;;;;;5054773;28;20011;-85
2023/08/10 02:04:52;;;;;;;;;;;8.50;99.90;;;;;;5054303;28;19909;-85
2023/08/10 02:07:18;;;;;;;;;;;8.60;99.90;;;;;;5088344;28;20379;-85
2023/08/10 02:09:44;;;;;;;;;;;8.60;99.90;;;;;;5037830;28;19995;-85
2023/08/10 02:12:10;;;;;;;;;;;8.60;99.90;;;;;;5054160;28;19923;-85
2023/08/10 02:14:35;;;;;;;;;;;8.60;99.90;;;;;;5055024;28;20275;-85
2023/08/10 02:17:01;;;;;;;;;;;8.60;99.90;;;;;;5037887;28;19909;-85
2023/08/10 02:19:26;;;;;;;;;;;8.60;99.90;;;;;;5054019;28;19912;-85
2023/08/10 02:21:52;;;;;;;;;;;8.60;99.90;;;;;;5054415;28;19915;-85
2023/08/10 02:24:18;;;;;;;;;;;8.60;99.90;;;;;;5037583;28;19912;-85
2023/08/10 02:26:43;;;;;;;;;;;8.60;99.90;;;;;;5046284;28;19923;-85
2023/08/10 02:29:09;;;;;;;;;;;8.60;99.90;;;;;;5054067;28;19912;-85
2023/08/10 02:31:34;;;;;;;;;;;8.60;99.90;;;;;;5055074;28;19908;-84
2023/08/10 02:34:00;;;;;;;;;;;8.60;99.90;;;;;;5031815;28;19917;-85
2023/08/10 02:36:26;;;;;;;;;;;8.60;99.90;;;;;;5069439;28;19908;-85
2023/08/10 02:38:55;;;;;;;;;;;8.60;99.90;;;;;;5054049;28;19959;-85
2023/08/10 02:41:20;;;;;;;;;;;8.60;99.90;;;;;;5053457;28;19944;-85
2023/08/10 02:43:46;;;;;;;;;;;8.70;99.90;;;;;;5053754;28;19905;-85
2023/08/10 02:46:11;;;;;;;;;;;8.70;99.90;;;;;;5052840;28;20391;-85
2023/08/10 02:48:37;;;;;;;;;;;8.70;99.90;;;;;;5053836;28;19908;-85
2023/08/10 02:51:02;;;;;;;;;;;8.80;99.90;;;;;;5036760;28;20097;-85
2023/08/10 02:53:28;;;;;;;;;;;8.80;99.90;;;;;;5070083;28;19909;-85
2023/08/10 02:55:54;;;;;;;;;;;8.90;99.90;;;;;;5053422;28;19909;-85
2023/08/10 02:58:20;;;;;;;;;;;8.90;99.90;;;;;;5053516;28;19952;-85
2023/08/10 03:00:45;;;;;;;;;;;9.00;99.90;;;;;;5035653;28;19915;-84
2023/08/10 03:03:11;;;;;;;;;;;9.10;99.90;;;;;;5036986;28;20423;-85
2023/08/10 03:05:37;;;;;;;;;;;9.10;99.90;;;;;;5052919;28;19908;-84
2023/08/10 03:08:03;;;;;;;;;;;9.20;99.90;;;;;;5036557;28;19909;-84
2023/08/10 03:10:28;;;;;;;;;;;9.20;99.90;;;;;;5036370;28;20267;-85
2023/08/10 03:12:54;;;;;;;;;;;9.20;99.90;;;;;;5052727;28;19916;-85
2023/08/10 03:15:20;;;;;;;;;;;9.30;99.90;;;;;;5036335;28;20011;-85
2023/08/10 03:17:46;;;;;;;;;;;9.30;99.90;;;;;;5085762;28;20531;-84
2023/08/10 03:20:16;;;;;;;;;;;9.30;99.90;;;;;;5052916;28;19905;-85
2023/08/10 03:22:44;;;;;;;;;;;9.30;99.90;;;;;;5036367;28;19925;-84
2023/08/10 03:25:10;;;;;;;;;;;9.30;99.90;;;;;;5052657;28;19908;-84
2023/08/10 03:27:36;;;;;;;;;;;9.20;99.90;;;;;;5036044;28;19997;-84
2023/08/10 03:30:04;;;;;;;;;;;9.20;99.90;;;;;;5035876;28;20007;-84
2023/08/10 03:32:33;;;;;;;;;;;9.10;99.90;;;;;;5036529;28;19970;-84
2023/08/10 03:34:58;;;;;;;;;;;9.10;99.90;;;;;;5052939;28;19957;-84
2023/08/10 03:37:25;;;;;;;;;;;9.10;99.90;;;;;;5052698;28;19908;-84
2023/08/10 03:39:52;;;;;;;;;;;9.00;99.90;;;;;;5052682;28;19948;-85
2023/08/10 03:42:18;;;;;;;;;;;9.00;99.90;;;;;;5036081;28;19915;-84
2023/08/10 03:44:43;;;;;;;;;;;9.00;99.90;;;;;;5052689;28;19909;-84
2023/08/10 03:47:09;;;;;;;;;;;8.90;99.90;;;;;;5052459;28;19956;-84
2023/08/10 03:49:34;;;;;;;;;;;8.90;99.90;;;;;;5086069;28;19991;-84
2023/08/10 03:52:02;;;;;;;;;;;8.80;99.90;;;;;;5035765;28;19920;-84
2023/08/10 03:54:29;;;;;;;;;;;8.80;99.90;;;;;;5035577;28;19913;-84
2023/08/10 03:56:54;;;;;;;;;;;8.90;99.90;;;;;;5052040;28;19917;-84
2023/08/10 03:59:20;;;;;;;;;;;8.90;99.90;;;;;;5035973;28;19913;-84
2023/08/10 04:01:50;;;;;;;;;;;8.90;99.90;;;;;;5036358;28;19908;-84
2023/08/10 04:04:16;;;;;;;;;;;8.80;99.90;;;;;;5052459;28;19916;-84
2023/08/10 04:06:41;;;;;;;;;;;8.80;99.90;;;;;;5035770;28;19940;-84
2023/08/10 04:09:09;;;;;;;;;;;8.80;99.90;;;;;;5049507;28;19909;-84
2023/08/10 04:11:35;;;;;;;;;;;8.80;99.90;;;;;;5035755;28;20283;-85
2023/08/10 04:14:00;;;;;;;;;;;8.80;99.90;;;;;;5052368;28;19996;-85
2023/08/10 04:16:26;;;;;;;;;;;8.80;99.90;;;;;;5036154;28;19908;-85
2023/08/10 04:18:51;;;;;;;;;;;8.80;99.90;;;;;;5052685;28;19909;-85
2023/08/10 04:21:17;;;;;;;;;;;8.80;99.90;;;;;;5052391;28;20324;-85
2023/08/10 04:23:43;;;;;;;;;;;8.80;99.90;;;;;;5051999;28;19916;-85
2023/08/10 04:26:11;;;;;;;;;;;8.80;99.90;;;;;;5035977;28;19912;-85
2023/08/10 04:28:36;;;;;;;;;;;8.80;99.90;;;;;;5036000;28;19909;-85
2023/08/10 04:31:02;;;;;;;;;;;8.80;99.90;;;;;;5052719;28;20364;-85
2023/08/10 04:33:28;;;;;;;;;;;8.80;99.90;;;;;;5036038;28;19908;-85
2023/08/10 04:35:54;;;;;;;;;;;8.80;99.90;;;;;;5035969;28;19961;-85
2023/08/10 04:38:19;;;;;;;;;;;8.70;99.90;;;;;;5056552;28;19915;-85
2023/08/10 04:40:45;;;;;;;;;;;8.80;99.90;;;;;;5056127;28;20002;-85
2023/08/10 04:43:10;;;;;;;;;;;8.90;99.90;;;;;;5039764;28;19913;-85
2023/08/10 04:45:36;;;;;;;;;;;9.00;99.90;;;;;;5056439;28;19916;-85
2023/08/10 04:48:02;;;;;;;;;;;9.10;99.90;;;;;;5056060;28;19915;-85
2023/08/10 04:50:29;;;;;;;;;;;9.10;99.90;;;;;;5057300;28;20010;-85
2023/08/10 04:52:54;;;;;;;;;;;9.20;99.90;;;;;;5056021;28;19915;-85
2023/08/10 04:55:20;;;;;;;;;;;9.20;99.90;;;;;;5039656;28;20007;-85
2023/08/10 04:57:45;;;;;;;;;;;9.20;99.90;;;;;;5056035;28;19909;-85
2023/08/10 05:00:14;;;;;;;;;;;9.30;99.90;;;;;;5029115;28;20008;-85
2023/08/10 05:02:40;;;;;;;;;;;9.30;99.90;;;;;;5056349;28;20272;-85
2023/08/10 05:05:06;;;;;;;;;;;9.40;99.90;;;;;;5039212;28;19909;-85
2023/08/10 05:07:32;;;;;;;;;;;9.50;99.90;;;;;;5056125;28;19959;-85
2023/08/10 05:09:58;;;;;;;;;;;9.60;99.90;;;;;;5056087;28;19909;-85
2023/08/10 05:12:24;;;;;;;;;;;9.60;99.90;;;;;;5039169;28;19913;-85
2023/08/10 05:14:52;;;;;;;;;;;9.70;99.90;;;;;;5039175;28;20272;-85
2023/08/10 05:17:17;;;;;;;;;;;9.80;99.90;;;;;;5038986;28;19909;-85
2023/08/10 05:19:43;;;;;;;;;;;10.00;99.90;;;;;;5055797;28;19960;-85
2023/08/10 05:22:09;;;;;;;;;;;10.40;99.90;;;;;;5089227;28;19919;-85
2023/08/10 05:24:34;;;;;;;;;;;10.70;99.90;;;;;;5039057;28;19912;-85
2023/08/10 05:27:01;;;;;;;;;;;11.00;99.90;;;;;;5055647;28;19917;-85
2023/08/10 05:29:26;;;;;;;;;;;11.30;99.90;;;;;;5038839;28;19909;-85
2023/08/10 05:31:52;;;;;;;;;;;11.40;99.90;;;;;;5056549;28;19970;-85
2023/08/10 05:34:35;;;;;;;;;;;11.60;99.90;;;;;;5056490;28;20302;-85
2023/08/10 05:37:01;;;;;;;;;;;11.90;99.90;;;;;;5038596;28;19924;-85
2023/08/10 05:39:26;;;;;;;;;;;12.20;99.90;;;;;;5055528;28;19909;-86
2023/08/10 05:41:53;;;;;;;;;;;12.50;99.90;;;;;;5038819;28;19923;-85
2023/08/10 05:44:19;;;;;;;;;;;12.70;99.90;;;;;;5055496;28;19915;-86
2023/08/10 05:46:45;;;;;;;;;;;12.80;99.90;;;;;;5056275;28;19916;-85
2023/08/10 05:49:11;;;;;;;;;;;12.90;99.90;;;;;;5055388;28;19913;-85
2023/08/10 05:51:36;;;;;;;;;;;13.10;99.90;;;;;;5038669;28;19980;-85
2023/08/10 05:54:02;;;;;;;;;;;13.30;99.90;;;;;;5055127;28;20356;-86
2023/08/10 05:56:28;;;;;;;;;;;13.50;99.90;;;;;;5054971;28;19916;-85
2023/08/10 05:58:53;;;;;;;;;;;13.60;99.90;;;;;;5088324;28;20340;-85
2023/08/10 06:01:20;;;;;;;;;;;13.80;99.90;;;;;;5038603;28;20405;-86
2023/08/10 06:03:46;;;;;;;;;;;14.00;99.90;;;;;;5055151;28;19967;-86
2023/08/10 06:06:12;;;;;;;;;;;14.40;99.90;;;;;;5038417;28;20382;-84
2023/08/10 06:08:38;;;;;;;;;;;14.70;99.90;;;;;;5054910;28;19996;-86
2023/08/10 06:11:05;;;;;;;;;;;14.70;99.90;;;;;;5037522;28;20236;-86
2023/08/10 06:13:31;;;;;;;;;;;14.90;99.90;;;;;;5054643;28;19912;-86
2023/08/10 06:15:57;;;;;;;;;;;15.10;99.90;;;;;;5037919;28;19988;-86
2023/08/10 06:18:22;;;;;;;;;;;15.30;99.90;;;;;;5038049;28;19978;-86
2023/08/10 06:20:48;;;;;;;;;;;15.50;99.90;;;;;;5054485;28;20293;-85
2023/08/10 06:23:14;;;;;;;;;;;15.80;99.90;;;;;;5054684;28;19916;-86
2023/08/10 06:25:42;;;;;;;;;;;16.00;99.90;;;;;;5054315;28;19956;-86
2023/08/10 06:31:12;;;;;;;;;;;16.40;99.90;;;;;;5055494;28;19916;-86
2023/08/10 06:33:38;;;;;;;;;;;16.70;99.90;;;;;;5037917;28;19908;-86
2023/08/10 06:36:06;;;;;;;;;;;16.90;99.90;;;;;;5037489;28;19911;-86
2023/08/10 06:38:34;;;;;;;;;;;17.20;99.90;;;;;;5037488;28;20489;-85
2023/08/10 06:41:00;;;;;;;;;;;17.40;99.90;;;;;;5037444;28;19999;-86
2023/08/10 06:43:26;;;;;;;;;;;17.70;99.90;;;;;;5037300;28;20374;-86
2023/08/10 06:45:53;;;;;;;;;;;17.90;99.90;;;;;;5054407;28;19908;-86
2023/08/10 06:48:18;;;;;;;;;;;18.20;99.90;;;;;;5053891;28;19954;-86
2023/08/10 06:50:44;;;;;;;;;;;18.40;99.90;;;;;;5037321;28;20422;-86
2023/08/10 06:53:11;;;;;;;;;;;18.80;99.90;;;;;;5054101;28;19913;-86
2023/08/10 06:55:38;;;;;;;;;;;18.90;99.90;;;;;;5036887;28;19912;-86
2023/08/10 06:58:19;;;;;;;;;;;19.10;99.90;;;;;;5037019;28;19909;-85
2023/08/10 07:00:44;;;;;;;;;;;19.20;99.90;;;;;;5053368;28;19947;-86
2023/08/10 07:03:10;;;;;;;;;;;19.20;99.90;;;;;;5053442;28;19913;-86
2023/08/10 07:05:38;;;;;;;;;;;19.40;99.90;;;;;;5036957;28;19915;-86
2023/08/10 07:08:03;;;;;;;;;;;19.50;99.90;;;;;;5036972;28;20015;-86
2023/08/10 07:10:29;;;;;;;;;;;19.70;99.90;;;;;;5037137;28;20362;-86
2023/08/10 07:12:55;;;;;;;;;;;19.80;99.90;;;;;;5037250;28;19917;-86
2023/08/10 07:15:20;;;;;;;;;;;20.00;99.90;;;;;;5069786;28;19919;-86
2023/08/10 07:17:46;;;;;;;;;;;19.90;99.90;;;;;;5036374;28;19917;-86
2023/08/10 07:20:13;;;;;;;;;;;19.90;99.90;;;;;;5053131;28;20367;-86
2023/08/10 07:22:38;;;;;;;;;;;19.70;99.90;;;;;;5036297;28;20374;-85
2023/08/10 07:25:05;;;;;;;;;;;19.80;99.90;;;;;;5054154;28;19908;-86
2023/08/10 07:27:34;;;;;;;;;;;20.10;99.90;;;;;;5036611;28;19913;-86
2023/08/10 07:30:01;;;;;;;;;;;20.20;99.90;;;;;;5053140;28;20407;-86
2023/08/10 07:32:27;;;;;;;;;;;20.40;99.90;;;;;;5036360;28;19935;-86
2023/08/10 07:34:52;;;;;;;;;;;20.60;99.90;;;;;;5054198;28;19908;-86
2023/08/10 07:37:18;;;;;;;;;;;20.70;99.90;;;;;;5053304;28;19908;-86
2023/08/10 07:39:43;;;;;;;;;;;20.60;99.90;;;;;;5036287;28;19905;-86
2023/08/10 07:42:09;;;;;;;;;;;20.50;99.90;;;;;;5036288;28;20283;-86
2023/08/10 07:44:35;;;;;;;;;;;20.70;99.90;;;;;;5036550;28;19920;-87
2023/08/10 07:47:00;;;;;;;;;;;20.60;99.90;;;;;;5036286;28;19912;-87
2023/08/10 07:49:27;;;;;;;;;;;20.60;99.90;;;;;;5036234;28;20047;-86
2023/08/10 07:51:53;;;;;;;;;;;20.80;99.90;;;;;;5052982;28;19920;-87
2023/08/10 07:54:19;;;;;;;;;;;20.90;99.90;;;;;;5052409;28;19913;-87
2023/08/10 07:56:45;;;;;;;;;;;20.90;99.90;;;;;;5036290;28;19909;-86
2023/08/10 07:59:11;;;;;;;;;;;20.90;99.90;;;;;;5086117;28;19913;-86
2023/08/10 08:01:38;;;;;;;;;;;20.70;99.90;;;;;;5036174;28;20409;-86
2023/08/10 08:04:04;;;;;;;;;;;20.50;99.90;;;;;;5052690;28;19909;-87
2023/08/10 08:06:30;;;;;;;;;;;20.30;99.90;;;;;;5052565;28;19908;-86
2023/08/10 08:08:55;;;;;;;;;;;20.00;99.90;;;;;;5036451;28;19916;-87
2023/08/10 08:11:21;;;;;;;;;;;20.00;99.90;;;;;;5051715;28;19916;-86
2023/08/10 08:13:46;;;;;;;;;;;20.20;99.90;;;;;;5035989;28;19909;-86
2023/08/10 08:16:12;;;;;;;;;;;20.50;99.90;;;;;;5035435;28;19965;-86
2023/08/10 08:18:45;;;;;;;;;;;20.50;99.90;;;;;;5036464;28;19948;-87
2023/08/10 08:21:12;;;;;;;;;;;20.40;99.90;;;;;;5053751;28;20051;-86
2023/08/10 08:23:38;;;;;;;;;;;20.30;99.90;;;;;;5035991;28;19908;-87
2023/08/10 08:26:03;;;;;;;;;;;20.20;99.90;;;;;;5035866;28;19908;-87
2023/08/10 08:28:29;;;;;;;;;;;20.10;99.90;;;;;;5053871;28;20360;-86
2023/08/10 08:30:55;;;;;;;;;;;20.40;99.90;;;;;;5035762;28;20014;-89
2023/08/10 08:33:20;;;;;;;;;;;20.80;99.90;;;;;;5035862;28;19913;-86
2023/08/10 08:35:46;;;;;;;;;;;21.30;99.90;;;;;;5035755;28;19908;-87
2023/08/10 08:38:15;;;;;;;;;;;21.70;99.90;;;;;;5052366;28;20376;-87
2023/08/10 08:40:41;;;;;;;;;;;21.80;99.90;;;;;;5035887;28;19913;-86
2023/08/10 08:43:07;;;;;;;;;;;22.40;99.90;;;;;;5068830;28;19908;-86
2023/08/10 08:45:32;;;;;;;;;;;22.80;99.90;;;;;;5035736;28;20283;-87
2023/08/10 08:47:58;;;;;;;;;;;23.50;99.90;;;;;;5035917;28;20040;-87
2023/08/10 08:50:26;;;;;;;;;;;24.50;99.90;;;;;;5051962;28;19956;-87
2023/08/10 08:52:52;;;;;;;;;;;24.80;99.90;;;;;;5036003;28;20430;-87
2023/08/10 08:55:18;;;;;;;;;;;25.50;99.90;;;;;;5052095;28;20383;-87
2023/08/10 08:57:44;;;;;;;;;;;24.90;99.90;;;;;;5035716;28;19905;-86
2023/08/10 09:00:10;;;;;;;;;;;24.80;99.90;;;;;;5035516;28;19940;-87
2023/08/10 09:02:35;;;;;;;;;;;24.60;99.90;;;;;;5052430;28;19908;-87
2023/08/10 09:05:02;;;;;;;;;;;24.70;99.90;;;;;;5035656;28;19909;-87
2023/08/10 09:07:28;;;;;;;;;;;25.20;99.90;;;;;;5068626;28;19917;-87
2023/08/10 09:09:54;;;;;;;;;;;25.70;97.40;;;;;;5034612;28;20444;-87
2023/08/10 09:12:30;;;;;;;;;;;26.10;96.80;;;;;;5051523;28;19931;-88
2023/08/10 09:15:05;;;;;;;;;;;26.50;94.60;;;;;;5035003;28;19940;-88
2023/08/10 09:17:32;;;;;;;;;;;27.40;93.60;;;;;;5067865;28;19913;-88
2023/08/10 09:20:19;;;;;;;;;;;28.20;87.00;;;;;;5068490;28;19940;-88
2023/08/10 09:22:45;;;;;;;;;;;28.80;85.70;;;;;;5052458;28;19908;-88
2023/08/10 09:25:11;;;;;;;;;;;29.80;87.00;;;;;;5054825;28;19931;-86
2023/08/10 09:27:37;;;;;;;;;;;29.90;78.00;;;;;;5055129;28;19909;-85
2023/08/10 09:30:03;;;;;;;;;;;30.00;73.10;;;;;;5055191;28;19915;-88
2023/08/10 09:32:29;;;;;;;;;;;30.00;71.20;;;;;;5042429;28;19913;-86
2023/08/10 09:34:55;;;;;;;;;;;29.60;71.80;;;;;;5052460;28;19915;-87
2023/08/10 09:37:22;;;;;;;;;;;30.00;70.40;;;;;;5049736;28;19927;-88
2023/08/10 09:39:52;;;;;;;;;;;29.60;69.20;;;;;;5054631;28;19998;-87
2023/08/10 09:42:18;;;;;;;;;;;29.50;68.60;;;;;;5054770;28;20576;-87
2023/08/10 09:44:48;;;;;;;;;;;29.30;66.40;;;;;;5038587;28;19909;-87
2023/08/10 09:47:14;;;;;;;;;;;28.70;67.00;;;;;;5038533;28;20419;-87
2023/08/10 09:50:00;;;;;;;;;;;28.90;69.20;;;;;;5038613;28;19979;-87
2023/08/10 09:52:26;;;;;;;;;;;29.10;68.20;;;;;;5041990;28;20340;-87
2023/08/10 09:54:52;;;;;;;;;;;28.40;69.00;;;;;;5038357;28;19948;-87
2023/08/10 09:57:55;;;;;;;;;;;28.10;69.40;;;;;;5071159;28;19909;-87
2023/08/10 10:00:22;;;;;;;;;;;27.30;71.00;;;;;;5037811;28;19970;-87
2023/08/10 10:02:48;;;;;;;;;;;26.60;74.00;;;;;;5038181;28;20383;-87
2023/08/10 10:05:19;;;;;;;;;;;26.50;73.60;;;;;;5054568;28;19938;-87
2023/08/10 10:07:44;;;;;;;;;;;26.40;76.00;;;;;;5054673;28;19951;-87
2023/08/10 10:10:12;;;;;;;;;;;26.20;75.40;;;;;;5037643;28;19912;-88
2023/08/10 10:12:37;;;;;;;;;;;25.10;74.30;;;;;;5053965;28;19916;-87
2023/08/10 10:15:04;;;;;;;;;;;25.10;76.40;;;;;;5054120;28;19915;-87
2023/08/10 10:17:30;;;;;;;;;;;25.40;80.70;;;;;;5037593;28;19908;-87
2023/08/10 10:19:55;;;;;;;;;;;25.80;80.00;;;;;;5054183;28;19948;-87
2023/08/10 10:22:21;;;;;;;;;;;25.80;81.30;;;;;;5053973;28;19916;-87
2023/08/10 10:24:47;;;;;;;;;;;25.70;81.00;;;;;;5037394;28;19920;-87
2023/08/10 10:27:13;;;;;;;;;;;25.30;82.60;;;;;;5037561;28;19909;-87
2023/08/10 10:29:40;;;;;;;;;;;25.30;82.40;;;;;;5037375;28;19908;-87
2023/08/10 10:32:11;;;;;;;;;;;25.70;79.70;;;;;;5036931;28;19896;-87
2023/08/10 10:34:37;;;;;;;;;;;25.60;81.10;;;;;;5053377;28;20364;-88
2023/08/10 10:37:25;;;;;;;;;;;26.10;80.80;;;;;;5054254;28;19911;-87
2023/08/10 10:40:10;;;;;;;;;;;26.20;76.50;;;;;;5047355;28;20003;-88
2023/08/10 10:42:55;;;;;;;;;;;26.30;79.20;;;;;;5053104;28;19915;-87
2023/08/10 10:45:23;;;;;;;;;;;26.10;79.90;;;;;;5037280;28;19919;-87
2023/08/10 10:47:49;;;;;;;;;;;26.60;81.00;;;;;;5037675;28;19909;-87
2023/08/10 10:50:19;;;;;;;;;;;27.00;81.50;;;;;;5037521;28;19962;-87
2023/08/10 10:52:52;;;;;;;;;;;26.80;77.50;;;;;;5046390;28;19912;-87
2023/08/10 10:55:19;;;;;;;;;;;26.70;79.60;;;;;;5036942;28;19916;-87
2023/08/10 10:57:46;;;;;;;;;;;26.30;79.80;;;;;;5037033;28;19966;-87
2023/08/10 11:00:12;;;;;;;;;;;26.30;82.00;;;;;;5037073;28;19903;-87
2023/08/10 11:02:39;;;;;;;;;;;26.30;80.10;;;;;;5053629;28;19908;-88
2023/08/10 11:05:09;;;;;;;;;;;25.60;77.10;;;;;;5037156;28;20015;-87
2023/08/10 11:07:39;;;;;;;;;;;25.70;80.90;;;;;;5053423;28;19916;-87
2023/08/10 11:10:06;;;;;;;;;;;25.60;82.60;;;;;;5064662;28;19912;-87
2023/08/10 11:12:31;;;;;;;;;;;26.00;81.60;;;;;;5052836;28;19979;-88
2023/08/10 11:14:57;;;;;;;;;;;26.60;78.20;;;;;;5087126;28;19909;-87
2023/08/10 11:17:25;;;;;;;;;;;26.40;77.00;;;;;;5053347;28;19909;-87
2023/08/10 11:19:50;;;;;;;;;;;27.00;76.50;;;;;;5053714;28;19909;-87
2023/08/10 11:22:17;;;;;;;;;;;26.20;78.40;;;;;;5037175;28;20434;-87
2023/08/10 11:24:45;;;;;;;;;;;26.30;79.00;;;;;;5037392;28;19909;-87
2023/08/10 11:27:10;;;;;;;;;;;27.10;81.70;;;;;;5036631;28;20818;-87
2023/08/10 11:29:36;;;;;;;;;;;27.70;78.60;;;;;;5053197;28;19909;-87
2023/08/10 11:32:01;;;;;;;;;;;27.90;77.70;;;;;;5036514;28;19919;-87
2023/08/10 11:34:27;;;;;;;;;;;28.00;75.60;;;;;;5036629;28;20561;-88
2023/08/10 11:36:53;;;;;;;;;;;28.40;77.00;;;;;;5036671;28;20414;-87
2023/08/10 11:39:20;;;;;;;;;;;27.90;74.20;;;;;;5053162;28;20346;-87
2023/08/10 11:41:46;;;;;;;;;;;27.70;75.20;;;;;;5053155;28;19908;-88
2023/08/10 11:44:21;;;;;;;;;;;27.90;75.90;;;;;;5036515;28;20774;-87
2023/08/10 11:46:49;;;;;;;;;;;28.30;74.80;;;;;;5052699;28;20653;-87
2023/08/10 11:49:15;;;;;;;;;;;28.40;74.50;;;;;;5036224;28;19909;-87
2023/08/10 11:51:41;;;;;;;;;;;27.80;78.80;;;;;;5053002;28;19917;-87
2023/08/10 11:54:08;;;;;;;;;;;27.90;77.00;;;;;;5052748;28;19912;-88
2023/08/10 11:56:45;;;;;;;;;;;28.20;77.50;;;;;;5036619;28;19943;-87
2023/08/10 11:59:11;;;;;;;;;;;27.20;74.90;;;;;;5069414;28;19913;-87
2023/08/10 12:01:44;;;;;;;;;;;27.30;78.70;;;;;;5036131;28;20366;-87
2023/08/10 12:04:14;;;;;;;;;;;27.60;77.30;;;;;;5036468;28;19940;-87
2023/08/10 12:06:40;;;;;;;;;;;27.90;77.20;;;;;;5036221;28;19893;-87
2023/08/10 12:09:10;;;;;;;;;;;27.60;77.30;;;;;;5036348;28;20023;-87
2023/08/10 12:11:36;;;;;;;;;;;27.40;82.50;;;;;;5052771;28;19913;-87
2023/08/10 12:14:02;;;;;;;;;;;26.30;76.90;;;;;;5052713;28;19905;-87
2023/08/10 12:16:27;;;;;;;;;;;25.90;82.30;;;;;;5035467;28;20360;-87
2023/08/10 12:18:53;;;;;;;;;;;25.90;80.00;;;;;;5035963;28;19943;-88
2023/08/10 12:21:18;;;;;;;;;;;25.50;81.60;;;;;;5035937;28;19935;-88
2023/08/10 12:23:44;;;;;;;;;;;25.10;79.50;;;;;;5052744;28;20025;-87
2023/08/10 12:26:13;;;;;;;;;;;25.20;79.30;;;;;;5035839;28;19908;-87
2023/08/10 12:28:38;;;;;;;;;;;25.60;82.00;;;;;;5052516;28;19909;-87
2023/08/10 12:31:05;;;;;;;;;;;25.70;82.60;;;;;;5035760;28;19920;-87
2023/08/10 12:33:31;;;;;;;;;;;25.90;84.40;;;;;;5052546;28;19958;-87
2023/08/10 12:35:57;;;;;;;;;;;25.80;81.40;;;;;;5052631;28;19913;-87
2023/08/10 12:38:23;;;;;;;;;;;25.80;82.50;;;;;;5035882;28;20367;-88
2023/08/10 12:40:48;;;;;;;;;;;25.90;84.40;;;;;;5052330;28;20307;-87
2023/08/10 12:43:14;;;;;;;;;;;26.20;81.40;;;;;;5052481;28;19918;-87
2023/08/10 12:45:40;;;;;;;;;;;26.30;79.40;;;;;;5036014;28;19958;-87
2023/08/10 12:48:06;;;;;;;;;;;25.90;80.60;;;;;;5035953;28;20750;-87
2023/08/10 12:50:32;;;;;;;;;;;26.30;81.90;;;;;;5052505;28;19916;-87
2023/08/10 12:52:58;;;;;;;;;;;27.00;81.40;;;;;;5036038;28;19912;-87
2023/08/10 12:55:23;;;;;;;;;;;27.20;79.30;;;;;;5052885;28;20256;-87
2023/08/10 12:57:49;;;;;;;;;;;27.50;78.70;;;;;;5053866;28;20390;-87
2023/08/10 13:00:21;;;;;;;;;;;27.40;79.70;;;;;;5039830;28;19916;-86
2023/08/10 13:02:48;;;;;;;;;;;27.50;77.30;;;;;;5056177;28;20360;-87
2023/08/10 13:05:15;;;;;;;;;;;26.80;76.20;;;;;;5039616;28;19990;-86
2023/08/10 13:07:41;;;;;;;;;;;26.60;77.60;;;;;;5039554;28;19967;-87
2023/08/10 13:10:07;;;;;;;;;;;26.80;76.80;;;;;;5039198;28;19908;-87
2023/08/10 13:12:34;;;;;;;;;;;27.40;79.90;;;;;;5039167;28;19931;-87
2023/08/10 13:15:00;;;;;;;;;;;27.90;76.20;;;;;;5056017;28;20358;-88
2023/08/10 13:17:26;;;;;;;;;;;28.10;77.30;;;;;;5039565;28;19955;-87
2023/08/10 13:19:58;;;;;;;;;;;27.60;75.70;;;;;;5036059;28;19917;-88
2023/08/10 13:22:26;;;;;;;;;;;27.70;77.60;;;;;;5039981;28;19913;-89
2023/08/10 13:24:52;;;;;;;;;;;27.30;77.00;;;;;;5089876;28;19913;-89
2023/08/10 13:27:18;;;;;;;;;;;27.50;78.70;;;;;;5057637;28;19932;-89
2023/08/10 13:29:44;;;;;;;;;;;27.90;78.60;;;;;;5058844;28;20267;-89
2023/08/10 13:32:09;;;;;;;;;;;28.20;74.00;;;;;;5056512;28;19913;-89
2023/08/10 13:34:35;;;;;;;;;;;28.80;76.80;;;;;;5056080;28;20360;-89
2023/08/10 13:37:01;;;;;;;;;;;28.90;74.50;;;;;;5043500;28;19912;-89
2023/08/10 13:39:26;;;;;;;;;;;28.30;76.60;;;;;;5056128;28;19951;-91
2023/08/10 13:41:52;;;;;;;;;;;27.70;75.60;;;;;;5039032;28;19915;-90
2023/08/10 13:44:18;;;;;;;;;;;27.80;77.10;;;;;;5056743;28;19909;-90
2023/08/10 13:46:43;;;;;;;;;;;27.70;77.70;;;;;;5039090;28;20265;-89
2023/08/10 13:49:09;;;;;;;;;;;27.00;75.00;;;;;;5057079;28;19909;-90
2023/08/10 13:51:37;;;;;;;;;;;27.00;77.30;;;;;;5039190;28;20004;-88
2023/08/10 13:54:03;;;;;;;;;;;26.70;76.30;;;;;;5056259;28;20003;-90
2023/08/10 13:56:49;;;;;;;;;;;26.00;79.70;;;;;;5039347;28;19915;-89
2023/08/10 13:59:14;;;;;;;;;;;25.50;80.60;;;;;;5055488;28;19909;-88
2023/08/10 14:01:40;;;;;;;;;;;25.00;82.40;;;;;;5040263;28;20394;-88
2023/08/10 14:04:06;;;;;;;;;;;24.50;80.40;;;;;;5038602;28;20382;-89
2023/08/10 14:06:31;;;;;;;;;;;24.30;85.20;;;;;;5038276;28;19908;-88
2023/08/10 14:08:57;;;;;;;;;;;24.20;81.10;;;;;;5053034;28;19909;-88
2023/08/10 14:11:22;;;;;;;;;;;24.20;83.80;;;;;;5054775;28;20401;-88
2023/08/10 14:13:48;;;;;;;;;;;24.30;88.00;;;;;;5055872;28;19908;-89
2023/08/10 14:16:15;;;;;;;;;;;24.20;87.00;;;;;;5038657;28;19958;-88
2023/08/10 14:18:41;;;;;;;;;;;24.00;87.10;;;;;;5071880;28;19979;-88
2023/08/10 14:21:07;;;;;;;;;;;24.00;85.90;;;;;;5055482;28;20933;-87
2023/08/10 14:23:32;;;;;;;;;;;23.90;85.50;;;;;;5055232;28;20360;-88